createdAt,value
2022-11-18T00:01:36.614Z,69.10
2022-11-18T00:04:03.245Z,69.10
2022-11-18T00:06:30.908Z,69.10
2022-11-18T00:08:59.142Z,69.20
2022-11-18T00:11:46.016Z,69.20
2022-11-18T00:14:22.726Z,69.20
2022-11-18T00:16:58.297Z,69.30
2022-11-18T00:19:28.713Z,69.20
2022-11-18T00:21:56.005Z,69.20
2022-11-18T00:24:23.329Z,69.10
2022-11-18T00:26:50.008Z,69.10
2022-11-18T00:29:17.289Z,69.10
2022-11-18T00:31:44.779Z,69.10
2022-11-18T00:34:16.583Z,69.10
2022-11-18T00:36:44.208Z,69.10
2022-11-18T00:39:12.552Z,69.10
2022-11-18T00:41:57.899Z,69.10
2022-11-18T00:44:24.815Z,69.10
2022-11-18T00:46:51.584Z,69.00
2022-11-18T00:49:18.554Z,69.10
2022-11-18T00:51:45.255Z,69.00
2022-11-18T00:54:12.504Z,69.00
2022-11-18T00:56:39.189Z,69.10
2022-11-18T00:59:06.028Z,69.10
2022-11-18T01:01:33.100Z,69.10
2022-11-18T01:04:00.742Z,69.10
2022-11-18T01:06:27.501Z,69.10
2022-11-18T01:08:54.215Z,69.10
2022-11-18T01:11:39.692Z,69.00
2022-11-18T01:14:06.405Z,69.00
2022-11-18T01:16:33.092Z,69.00
2022-11-18T01:18:59.728Z,69.00
2022-11-18T01:21:26.333Z,69.10
2022-11-18T01:23:53.405Z,69.10
2022-11-18T01:26:20.302Z,69.00
2022-11-18T01:28:46.968Z,69.10
2022-11-18T01:31:19.308Z,69.00
2022-11-18T01:33:46.900Z,69.30
2022-11-18T01:36:27.463Z,69.00
2022-11-18T01:38:55.021Z,69.30
2022-11-18T01:41:25.112Z,69.20
2022-11-18T01:44:01.442Z,69.20
2022-11-18T01:46:30.911Z,69.30
2022-11-18T01:49:11.855Z,69.10
2022-11-18T01:51:55.014Z,69.30
2022-11-18T01:54:29.733Z,69.20
2022-11-18T01:56:58.167Z,69.30
2022-11-18T01:59:27.935Z,68.50
2022-11-18T02:02:00.086Z,69.00
2022-11-18T02:04:27.831Z,69.30
2022-11-18T02:06:55.209Z,69.30
2022-11-18T02:09:22.843Z,69.30
2022-11-18T02:11:56.093Z,69.30
2022-11-18T02:14:31.937Z,69.20
2022-11-18T02:17:10.545Z,69.40
2022-11-18T02:19:46.623Z,69.20
2022-11-18T02:22:50.540Z,69.40
2022-11-18T02:25:50.060Z,69.40
2022-11-18T02:28:54.579Z,69.40
2022-11-18T02:31:31.977Z,69.30
2022-11-18T02:34:28.764Z,69.30
2022-11-18T02:37:02.505Z,69.40
2022-11-18T02:39:37.770Z,69.30
2022-11-18T02:42:07.986Z,69.40
2022-11-18T02:44:38.288Z,69.30
2022-11-18T02:47:08.005Z,69.40
2022-11-18T02:49:41.190Z,69.30
2022-11-18T02:52:11.024Z,69.30
2022-11-18T02:54:41.241Z,69.20
2022-11-18T02:57:08.957Z,69.30
2022-11-18T02:59:35.719Z,69.20
2022-11-18T03:02:02.528Z,69.20
2022-11-18T03:04:30.464Z,69.10
2022-11-18T03:07:13.183Z,69.10
2022-11-18T03:09:43.330Z,69.30
2022-11-18T03:12:23.908Z,69.00
2022-11-18T03:15:19.164Z,69.00
2022-11-18T03:18:01.101Z,69.00
2022-11-18T03:20:42.162Z,68.90
2022-11-18T03:23:36.012Z,69.10
2022-11-18T03:26:09.291Z,69.10
2022-11-18T03:28:49.148Z,69.10
2022-11-18T03:31:27.991Z,69.20
2022-11-18T03:34:13.421Z,69.20
2022-11-18T03:36:47.741Z,69.10
2022-11-18T03:39:19.790Z,69.10
2022-11-18T03:42:02.600Z,69.00
2022-11-18T03:44:36.505Z,69.00
2022-11-18T03:47:09.405Z,69.10
2022-11-18T03:50:05.914Z,69.10
2022-11-18T03:52:36.936Z,69.10
2022-11-18T03:55:15.899Z,69.00
2022-11-18T03:58:05.356Z,69.00
2022-11-18T04:00:38.155Z,68.90
2022-11-18T04:03:04.952Z,68.90
2022-11-18T04:05:37.469Z,68.80
2022-11-18T04:08:08.861Z,69.00
2022-11-18T04:10:42.989Z,68.80
2022-11-18T04:13:16.337Z,68.90
2022-11-18T04:15:43.374Z,68.80
2022-11-18T04:18:10.825Z,68.80
2022-11-18T04:20:38.023Z,68.80
2022-11-18T04:23:06.934Z,68.80
2022-11-18T04:25:34.020Z,68.80
2022-11-18T04:28:00.716Z,68.70
2022-11-18T04:30:27.582Z,68.80
2022-11-18T04:32:54.442Z,68.80
2022-11-18T04:35:21.170Z,68.80
2022-11-18T04:37:47.846Z,68.80
2022-11-18T04:40:14.697Z,68.90
2022-11-18T04:42:41.458Z,68.80
2022-11-18T04:45:08.947Z,68.80
2022-11-18T04:47:35.781Z,68.90
2022-11-18T04:50:02.544Z,68.90
2022-11-18T04:52:29.462Z,68.80
2022-11-18T04:54:56.267Z,68.80
2022-11-18T04:57:23.005Z,68.80
2022-11-18T04:59:49.631Z,68.80
2022-11-18T05:02:16.409Z,68.90
2022-11-18T05:04:43.133Z,68.80
2022-11-18T05:07:15.499Z,68.90
2022-11-18T05:09:42.687Z,69.10
2022-11-18T05:12:32.639Z,68.90
2022-11-18T05:14:59.632Z,69.10
2022-11-18T05:17:26.282Z,68.90
2022-11-18T05:19:53.120Z,68.90
2022-11-18T05:22:19.835Z,69.00
2022-11-18T05:24:46.801Z,69.00
2022-11-18T05:27:14.217Z,69.10
2022-11-18T05:29:40.971Z,69.00
2022-11-18T05:32:07.679Z,69.10
2022-11-18T05:34:34.593Z,69.10
2022-11-18T05:37:01.218Z,69.10
2022-11-18T05:39:28.105Z,69.20
2022-11-18T05:42:13.447Z,69.20
2022-11-18T05:44:40.138Z,69.10
2022-11-18T05:47:06.793Z,69.10
2022-11-18T05:49:33.561Z,69.10
2022-11-18T05:52:00.405Z,69.00
2022-11-18T05:54:27.621Z,69.10
2022-11-18T05:56:54.546Z,69.10
2022-11-18T05:59:21.445Z,69.00
2022-11-18T06:01:57.802Z,69.00
2022-11-18T06:04:26.828Z,69.20
2022-11-18T06:06:59.145Z,69.10
2022-11-18T06:09:30.054Z,69.10
2022-11-18T06:11:58.375Z,69.20
2022-11-18T06:14:33.825Z,69.10
2022-11-18T06:17:04.185Z,69.10
2022-11-18T06:19:32.141Z,69.10
2022-11-18T06:21:59.182Z,69.00
2022-11-18T06:24:26.301Z,69.00
2022-11-18T06:26:53.653Z,69.00
2022-11-18T06:29:26.195Z,69.00
2022-11-18T06:31:54.657Z,69.10
2022-11-18T06:34:21.349Z,68.90
2022-11-18T06:36:48.036Z,69.00
2022-11-18T06:39:14.745Z,68.90
2022-11-18T06:41:41.459Z,68.90
2022-11-18T06:44:08.289Z,68.90
2022-11-18T06:46:53.698Z,68.90
2022-11-18T06:49:20.476Z,68.90
2022-11-18T06:51:47.254Z,68.80
2022-11-18T06:54:14.291Z,68.80
2022-11-18T06:56:40.949Z,69.00
2022-11-18T06:59:07.944Z,69.00
2022-11-18T07:01:37.628Z,68.90
2022-11-18T07:04:04.758Z,69.10
2022-11-18T07:06:34.092Z,68.90
2022-11-18T07:09:02.496Z,69.00
2022-11-18T07:11:29.297Z,69.10
2022-11-18T07:13:56.101Z,69.10
2022-11-18T07:16:24.808Z,69.00
2022-11-18T07:18:52.863Z,69.10
2022-11-18T07:21:25.372Z,69.00
2022-11-18T07:23:52.581Z,69.10
2022-11-18T07:26:19.830Z,68.90
2022-11-18T07:28:46.862Z,69.00
2022-11-18T07:31:16.354Z,69.00
2022-11-18T07:33:45.376Z,69.00
2022-11-18T07:36:15.077Z,69.00
2022-11-18T07:38:42.223Z,69.00
2022-11-18T07:41:10.744Z,69.00
2022-11-18T07:43:38.124Z,69.00
2022-11-18T07:46:11.790Z,69.00
2022-11-18T07:48:38.663Z,69.30
2022-11-18T07:51:05.456Z,68.90
2022-11-18T07:53:33.482Z,68.90
2022-11-18T07:56:00.757Z,69.10
2022-11-18T07:58:27.925Z,69.20
2022-11-18T08:00:54.551Z,69.20
2022-11-18T08:03:26.005Z,69.20
2022-11-18T08:05:52.854Z,69.50
2022-11-18T08:08:19.642Z,69.20
2022-11-18T08:10:46.365Z,69.30
2022-11-18T08:13:13.122Z,69.20
2022-11-18T08:15:41.866Z,69.20
2022-11-18T08:18:13.415Z,69.40
2022-11-18T08:20:40.508Z,69.30
2022-11-18T08:23:07.146Z,69.40
2022-11-18T08:25:34.714Z,69.40
2022-11-18T08:28:01.313Z,69.30
2022-11-18T08:30:27.982Z,69.50
2022-11-18T08:32:54.883Z,69.50
2022-11-18T08:35:21.849Z,69.50
2022-11-18T08:37:48.572Z,69.50
2022-11-18T08:40:15.472Z,69.50
2022-11-18T08:42:42.113Z,69.60
2022-11-18T08:45:09.255Z,69.60
2022-11-18T08:47:36.675Z,69.60
2022-11-18T08:50:04.744Z,69.50
2022-11-18T08:52:31.478Z,69.50
2022-11-18T08:54:58.115Z,69.40
2022-11-18T08:57:24.905Z,69.30
2022-11-18T08:59:51.595Z,69.50
2022-11-18T09:02:23.302Z,69.40
2022-11-18T09:04:51.356Z,69.70
2022-11-18T09:07:19.304Z,69.60
2022-11-18T09:09:46.055Z,69.40
2022-11-18T09:12:15.041Z,69.40
2022-11-18T09:17:29.838Z,69.20
2022-11-18T09:19:56.465Z,69.10
2022-11-18T09:22:23.037Z,69.30
2022-11-18T09:24:49.801Z,69.10
2022-11-18T09:27:17.636Z,69.00
2022-11-18T09:29:45.383Z,69.10
2022-11-18T09:32:12.164Z,69.00
2022-11-18T09:34:38.952Z,69.10
2022-11-18T09:37:06.854Z,69.00
2022-11-18T09:39:40.003Z,69.10
2022-11-18T09:42:33.140Z,69.30
2022-11-18T09:45:22.338Z,69.00
2022-11-18T09:47:51.388Z,69.10
2022-11-18T09:50:47.836Z,68.90
2022-11-18T09:53:19.914Z,69.10
2022-11-18T09:55:48.391Z,69.10
2022-11-18T09:58:42.828Z,69.00
2022-11-18T10:01:17.297Z,68.90
2022-11-18T10:03:44.150Z,69.20
2022-11-18T10:06:31.451Z,68.80
2022-11-18T10:09:10.951Z,69.10
2022-11-18T10:11:50.529Z,68.80
2022-11-18T10:14:27.051Z,68.80
2022-11-18T10:16:59.704Z,69.00
2022-11-18T10:19:39.052Z,68.90
2022-11-18T10:22:24.080Z,69.00
2022-11-18T10:25:01.116Z,69.20
2022-11-18T10:27:38.708Z,69.10
2022-11-18T10:30:22.429Z,69.30
2022-11-18T10:33:04.999Z,69.30
2022-11-18T10:35:38.145Z,69.30
2022-11-18T10:38:09.040Z,69.20
2022-11-18T10:40:40.326Z,69.20
2022-11-18T10:43:09.676Z,69.10
2022-11-18T10:45:36.547Z,69.10
2022-11-18T10:48:14.876Z,69.20
2022-11-18T10:50:43.659Z,69.50
2022-11-18T10:53:36.933Z,69.30
2022-11-18T10:56:10.857Z,69.60
2022-11-18T10:58:42.248Z,69.70
2022-11-18T11:01:21.527Z,70.30
2022-11-18T11:04:00.161Z,70.60
2022-11-18T11:06:26.919Z,70.60
2022-11-18T11:09:25.349Z,70.60
2022-11-18T11:12:16.824Z,70.80
2022-11-18T11:14:57.900Z,71.00
2022-11-18T11:17:34.133Z,71.10
2022-11-18T11:20:15.555Z,71.20
2022-11-18T11:22:42.825Z,71.30
2022-11-18T11:25:26.861Z,71.10
2022-11-18T11:28:17.329Z,71.30
2022-11-18T11:31:16.995Z,71.10
2022-11-18T11:34:16.219Z,71.00
2022-11-18T11:37:05.836Z,71.10
2022-11-18T11:39:47.590Z,70.90
2022-11-18T11:42:41.946Z,71.10
2022-11-18T11:45:27.093Z,71.00
2022-11-18T11:48:08.923Z,70.90
2022-11-18T11:51:04.297Z,70.60
2022-11-18T11:54:04.667Z,70.80
2022-11-18T11:56:55.464Z,70.90
2022-11-18T11:59:44.808Z,70.90
2022-11-18T12:02:40.114Z,71.00
2022-11-18T12:05:20.203Z,70.90
2022-11-18T12:07:55.786Z,70.90
2022-11-18T12:10:42.300Z,70.80
2022-11-18T12:13:55.997Z,70.90
2022-11-18T12:16:40.507Z,70.80
2022-11-18T12:19:16.768Z,70.80
2022-11-18T12:21:46.861Z,70.70
2022-11-18T12:24:34.320Z,70.70
2022-11-18T12:27:23.702Z,70.70
2022-11-18T12:29:50.278Z,70.60
2022-11-18T12:32:42.154Z,70.50
2022-11-18T12:35:25.093Z,70.50
2022-11-18T12:37:52.060Z,70.40
2022-11-18T12:40:32.752Z,70.30
2022-11-18T12:43:18.861Z,70.40
2022-11-18T12:45:45.902Z,70.30
2022-11-18T12:48:38.635Z,70.20
2022-11-18T12:51:40.450Z,70.30
2022-11-18T12:54:22.982Z,70.10
2022-11-18T12:56:51.384Z,70.20
2022-11-18T12:59:27.614Z,70.10
2022-11-18T13:02:06.945Z,70.10
2022-11-18T13:04:33.651Z,70.10
2022-11-18T13:07:02.770Z,70.00
2022-11-18T13:09:35.975Z,70.00
2022-11-18T13:12:12.778Z,70.00
2022-11-18T13:15:02.992Z,70.00
2022-11-18T13:17:52.052Z,70.00
2022-11-18T13:20:23.864Z,69.80
2022-11-18T13:23:15.214Z,69.80
2022-11-18T13:25:45.146Z,69.90
2022-11-18T13:28:47.292Z,69.70
2022-11-18T13:31:48.203Z,69.60
2022-11-18T13:34:21.213Z,69.80
2022-11-18T13:36:50.483Z,69.80
2022-11-18T13:39:26.540Z,69.80
2022-11-18T13:42:06.355Z,69.80
2022-11-18T13:44:37.814Z,69.70
2022-11-18T13:47:07.166Z,69.60
2022-11-18T13:49:51.928Z,69.60
2022-11-18T13:52:29.906Z,69.70
2022-11-18T13:55:00.139Z,69.50
2022-11-18T13:57:29.107Z,69.40
2022-11-18T14:00:08.041Z,69.60
2022-11-18T14:02:46.067Z,69.50
2022-11-18T14:05:21.653Z,69.50
2022-11-18T14:08:06.030Z,69.40
2022-11-18T14:10:41.249Z,69.40
2022-11-18T14:13:27.371Z,69.30
2022-11-18T14:16:20.704Z,69.40
2022-11-18T14:18:49.997Z,69.20
2022-11-18T14:21:36.695Z,69.20
2022-11-18T14:24:03.916Z,69.30
2022-11-18T14:26:39.700Z,69.20
2022-11-18T14:29:21.313Z,69.40
2022-11-18T14:32:09.359Z,69.30
2022-11-18T14:34:36.003Z,69.20
2022-11-18T14:37:09.572Z,69.00
2022-11-18T14:39:37.886Z,69.10
2022-11-18T14:42:06.376Z,69.00
2022-11-18T14:44:33.153Z,69.10
2022-11-18T14:47:03.289Z,69.10
2022-11-18T14:49:31.591Z,69.40
2022-11-18T14:51:59.119Z,69.70
2022-11-18T14:54:27.622Z,69.70
2022-11-18T14:57:03.729Z,69.70
2022-11-18T14:59:30.314Z,69.80
2022-11-18T15:01:58.538Z,69.70
2022-11-18T15:04:26.126Z,69.70
2022-11-18T15:06:52.837Z,69.70
2022-11-18T15:09:19.735Z,69.70
2022-11-18T15:11:46.417Z,69.70
2022-11-18T15:14:13.099Z,69.70
2022-11-18T15:16:39.950Z,69.60
2022-11-18T15:19:10.226Z,69.70
2022-11-18T15:21:37.099Z,69.80
2022-11-18T15:24:04.171Z,69.80
2022-11-18T15:26:37.282Z,69.70
2022-11-18T15:29:04.640Z,69.80
2022-11-18T15:31:31.295Z,69.70
2022-11-18T15:34:02.179Z,69.70
2022-11-18T15:36:33.070Z,69.70
2022-11-18T15:38:59.644Z,69.70
2022-11-18T15:41:28.179Z,69.70
2022-11-18T15:43:57.104Z,69.70
2022-11-18T15:46:26.014Z,69.60
2022-11-18T15:48:53.902Z,69.70
2022-11-18T15:51:20.979Z,69.70
2022-11-18T15:53:47.772Z,69.70
2022-11-18T15:56:20.228Z,69.70
2022-11-18T15:59:02.309Z,69.80
2022-11-18T16:01:30.935Z,69.90
2022-11-18T16:03:58.334Z,69.90
2022-11-18T16:06:25.871Z,69.90
2022-11-18T16:08:59.226Z,69.90
2022-11-18T16:11:46.580Z,69.90
2022-11-18T16:14:15.146Z,69.90
2022-11-18T16:16:43.203Z,70.00
2022-11-18T16:19:12.406Z,70.10
2022-11-18T16:21:41.741Z,70.20
2022-11-18T16:24:13.927Z,70.20
2022-11-18T16:26:40.610Z,70.30
2022-11-18T16:29:07.913Z,70.10
2022-11-18T16:31:41.011Z,70.10
2022-11-18T16:34:08.957Z,70.10
2022-11-18T16:36:41.120Z,70.00
2022-11-18T16:39:12.783Z,70.20
2022-11-18T16:41:40.875Z,70.10
2022-11-18T16:44:12.951Z,70.10
2022-11-18T16:46:41.991Z,70.10
2022-11-18T16:49:12.984Z,70.10
2022-11-18T16:51:42.624Z,70.20
2022-11-18T16:54:22.867Z,70.10
2022-11-18T16:56:50.522Z,70.20
2022-11-18T16:59:21.589Z,70.10
2022-11-18T17:01:50.277Z,70.10
2022-11-18T17:04:17.936Z,70.10
2022-11-18T17:06:46.312Z,70.10
2022-11-18T17:09:16.249Z,70.10
2022-11-18T17:11:43.237Z,70.10
2022-11-18T17:14:09.933Z,70.10
2022-11-18T17:16:37.013Z,70.10
2022-11-18T17:19:10.201Z,70.10
2022-11-18T17:21:38.437Z,70.20
2022-11-18T17:24:05.563Z,69.50
2022-11-18T17:26:32.260Z,70.00
2022-11-18T17:28:59.720Z,70.20
2022-11-18T17:31:26.623Z,70.40
2022-11-18T17:33:55.141Z,70.40
2022-11-18T17:36:27.067Z,70.50
2022-11-18T17:38:56.246Z,70.50
2022-11-18T17:41:43.885Z,70.50
2022-11-18T17:44:12.310Z,70.50
2022-11-18T17:46:39.378Z,70.50
2022-11-18T17:49:13.691Z,70.50
2022-11-18T17:51:41.024Z,70.70
2022-11-18T17:54:08.312Z,70.40
2022-11-18T17:56:35.597Z,70.50
2022-11-18T17:59:02.512Z,70.50
2022-11-18T18:01:29.441Z,70.50
2022-11-18T18:03:56.298Z,70.50
2022-11-18T18:06:23.370Z,70.50
2022-11-18T18:08:50.110Z,70.60
2022-11-18T18:11:18.984Z,70.50
2022-11-18T18:14:04.733Z,70.60
2022-11-18T18:16:33.350Z,70.50
2022-11-18T18:19:01.830Z,70.50
2022-11-18T18:21:28.768Z,70.60
2022-11-18T18:23:55.917Z,70.60
2022-11-18T18:26:26.770Z,70.60
2022-11-18T18:29:09.096Z,70.60
2022-11-18T18:31:37.177Z,70.50
2022-11-18T18:34:04.147Z,70.50
2022-11-18T18:36:30.755Z,70.50
2022-11-18T18:38:58.689Z,70.50
2022-11-18T18:41:25.332Z,70.50
2022-11-18T18:43:51.964Z,70.50
2022-11-18T18:46:33.737Z,70.50
2022-11-18T18:49:02.754Z,70.50
2022-11-18T18:51:43.601Z,70.50
2022-11-18T18:54:12.535Z,70.60
2022-11-18T18:56:39.579Z,70.60
2022-11-18T18:59:06.812Z,70.50
2022-11-18T19:01:34.159Z,70.60
2022-11-18T19:04:03.154Z,70.50
2022-11-18T19:06:53.265Z,70.60
2022-11-18T19:09:21.616Z,70.60
2022-11-18T19:12:06.946Z,70.50
2022-11-18T19:14:35.202Z,70.50
2022-11-18T19:17:08.204Z,70.60
2022-11-18T19:19:56.687Z,70.70
2022-11-18T19:22:23.684Z,70.70
2022-11-18T19:24:51.094Z,70.70
2022-11-18T19:27:19.013Z,70.70
2022-11-18T19:29:45.851Z,70.70
2022-11-18T19:32:12.611Z,70.70
2022-11-18T19:34:39.283Z,70.70
2022-11-18T19:37:06.393Z,70.70
2022-11-18T19:39:33.119Z,70.70
2022-11-18T19:41:59.770Z,70.70
2022-11-18T19:44:26.428Z,70.70
2022-11-18T19:46:53.065Z,70.70
2022-11-18T19:49:19.886Z,70.70
2022-11-18T19:51:46.706Z,70.70
2022-11-18T19:54:13.629Z,70.70
2022-11-18T19:56:40.582Z,70.70
2022-11-18T19:59:07.553Z,70.70
2022-11-18T20:01:34.337Z,70.70
2022-11-18T20:04:05.689Z,70.70
2022-11-18T20:06:35.898Z,70.70
2022-11-18T20:09:06.028Z,70.80
2022-11-18T20:11:32.622Z,70.70
2022-11-18T20:13:59.242Z,70.70
2022-11-18T20:16:26.031Z,70.70
2022-11-18T20:18:57.776Z,70.80
2022-11-18T20:21:25.866Z,70.80
2022-11-18T20:23:56.322Z,70.80
2022-11-18T20:26:25.471Z,70.90
2022-11-18T20:28:57.201Z,70.80
2022-11-18T20:31:25.947Z,70.80
2022-11-18T20:33:54.070Z,70.80
2022-11-18T20:36:28.495Z,70.90
2022-11-18T20:38:57.708Z,71.00
2022-11-18T20:41:25.663Z,70.80
2022-11-18T20:43:52.943Z,70.90
2022-11-18T20:46:21.716Z,70.90
2022-11-18T20:48:49.479Z,70.80
2022-11-18T20:51:18.860Z,70.90
2022-11-18T20:53:45.880Z,70.90
2022-11-18T20:56:17.883Z,70.80
2022-11-18T20:58:45.341Z,70.90
2022-11-18T21:01:17.873Z,70.90
2022-11-18T21:03:55.106Z,71.00
2022-11-18T21:06:24.627Z,71.00
2022-11-18T21:08:56.511Z,71.00
2022-11-18T21:11:23.490Z,71.10
2022-11-18T21:14:08.718Z,70.90
2022-11-18T21:16:35.539Z,70.90
2022-11-18T21:19:02.208Z,70.80
2022-11-18T21:21:47.386Z,70.90
2022-11-18T21:24:17.385Z,71.00
2022-11-18T21:26:45.919Z,70.00
2022-11-18T21:29:14.135Z,70.90
2022-11-18T21:31:41.791Z,71.00
2022-11-18T21:34:09.538Z,71.10
2022-11-18T21:36:41.365Z,71.10
2022-11-18T21:39:11.232Z,71.10
2022-11-18T21:41:38.445Z,70.10
2022-11-18T21:44:08.962Z,70.90
2022-11-18T21:46:36.747Z,71.20
2022-11-18T21:49:04.962Z,71.30
2022-11-18T21:51:32.947Z,71.20
2022-11-18T21:54:00.778Z,71.20
2022-11-18T21:56:31.152Z,71.20
2022-11-18T21:59:00.906Z,71.30
2022-11-18T22:01:30.445Z,71.20
2022-11-18T22:03:59.441Z,71.10
2022-11-18T22:06:29.855Z,71.10
2022-11-18T22:08:57.070Z,71.10
2022-11-18T22:11:25.706Z,70.90
2022-11-18T22:13:53.286Z,70.90
2022-11-18T22:16:22.485Z,70.90
2022-11-18T22:18:56.492Z,70.90
2022-11-18T22:21:26.239Z,70.80
2022-11-18T22:23:55.902Z,70.50
2022-11-18T22:26:22.575Z,70.50
2022-11-18T22:28:54.176Z,70.30
2022-11-18T22:31:22.130Z,70.50
2022-11-18T22:33:50.165Z,70.30
2022-11-18T22:36:18.997Z,70.40
2022-11-18T22:38:45.805Z,70.40
2022-11-18T22:41:47.488Z,70.30
2022-11-18T22:44:15.632Z,70.40
2022-11-18T22:46:44.071Z,70.20
2022-11-18T22:49:11.682Z,70.20
2022-11-18T22:51:39.014Z,70.10
2022-11-18T22:56:54.206Z,70.10
2022-11-18T22:59:21.381Z,70.00
2022-11-18T23:01:51.052Z,69.90
2022-11-18T23:04:18.044Z,69.90
2022-11-18T23:06:44.711Z,69.90
2022-11-18T23:09:11.367Z,69.80
2022-11-18T23:11:56.722Z,69.80
2022-11-18T23:14:23.370Z,69.80
2022-11-18T23:16:50.058Z,69.70
2022-11-18T23:19:17.939Z,69.70
2022-11-18T23:21:45.594Z,69.60
2022-11-18T23:24:14.243Z,69.60
2022-11-18T23:26:41.412Z,69.60
2022-11-18T23:29:09.378Z,69.60
2022-11-18T23:31:36.141Z,69.50
2022-11-18T23:34:02.876Z,69.50
2022-11-18T23:36:29.549Z,69.40
2022-11-18T23:38:56.350Z,69.40
2022-11-18T23:41:23.176Z,69.40
2022-11-18T23:43:52.180Z,69.40
2022-11-18T23:46:19.610Z,69.40
2022-11-18T23:48:47.395Z,69.40
2022-11-18T23:51:20.508Z,69.30
2022-11-18T23:53:51.324Z,69.30
2022-11-18T23:56:19.497Z,69.30
2022-11-18T23:58:48.541Z,69.30
